sensor_id;sensor_type;location;lat;lon;timestamp;P1;durP1;ratioP1;P2;durP2;ratioP2
3401;SDS011;1714;49.756;8.610;2023-04-10T03:36:58;11.57;;;7.38;;
3401;SDS011;1714;49.756;8.610;2023-04-10T03:47:33;11.50;;;7.50;;
3401;SDS011;1714;49.756;8.610;2023-04-10T03:58:12;11.02;;;7.18;;
3401;SDS011;1714;49.756;8.610;2023-04-10T04:08:48;13.45;;;8.00;;
3401;SDS011;1714;49.756;8.610;2023-04-10T04:19:30;13.60;;;7.22;;
3401;SDS011;1714;49.756;8.610;2023-04-10T04:30:17;12.02;;;7.13;;
3401;SDS011;1714;49.756;8.610;2023-04-10T04:41:14;10.85;;;7.38;;
3401;SDS011;1714;49.756;8.610;2023-04-10T04:52:16;10.00;;;6.93;;
3401;SDS011;1714;49.756;8.610;2023-04-10T05:03:19;11.98;;;8.00;;
3401;SDS011;1714;49.756;8.610;2023-04-10T05:14:31;10.80;;;7.40;;
3401;SDS011;1714;49.756;8.610;2023-04-10T05:25:15;10.40;;;6.22;;
3401;SDS011;1714;49.756;8.610;2023-04-10T05:36:23;10.48;;;7.20;;
3401;SDS011;1714;49.756;8.610;2023-04-10T05:47:16;11.38;;;6.20;;
3401;SDS011;1714;49.756;8.610;2023-04-10T05:58:08;7.97;;;5.65;;
3401;SDS011;1714;49.756;8.610;2023-04-10T06:09:03;6.57;;;5.05;;
3401;SDS011;1714;49.756;8.610;2023-04-10T06:19:39;8.77;;;6.90;;
3401;SDS011;1714;49.756;8.610;2023-04-10T06:30:15;7.05;;;5.43;;
3401;SDS011;1714;49.756;8.610;2023-04-10T06:40:51;6.95;;;5.68;;
3401;SDS011;1714;49.756;8.610;2023-04-10T06:51:26;6.22;;;5.00;;
3401;SDS011;1714;49.756;8.610;2023-04-10T07:02:02;6.60;;;5.43;;
3401;SDS011;1714;49.756;8.610;2023-04-10T07:12:38;6.80;;;5.32;;
3401;SDS011;1714;49.756;8.610;2023-04-10T07:23:14;7.57;;;5.50;;
3401;SDS011;1714;49.756;8.610;2023-04-10T07:33:50;5.20;;;4.70;;
3401;SDS011;1714;49.756;8.610;2023-04-10T07:44:25;5.18;;;4.68;;
3401;SDS011;1714;49.756;8.610;2023-04-10T07:55:02;6.38;;;5.60;;
3401;SDS011;1714;49.756;8.610;2023-04-10T08:05:39;4.45;;;4.05;;
3401;SDS011;1714;49.756;8.610;2023-04-10T08:16:14;7.53;;;4.82;;
3401;SDS011;1714;49.756;8.610;2023-04-10T08:26:50;5.07;;;3.28;;
3401;SDS011;1714;49.756;8.610;2023-04-10T08:37:26;3.72;;;3.33;;
3401;SDS011;1714;49.756;8.610;2023-04-10T08:48:03;3.20;;;2.90;;
3401;SDS011;1714;49.756;8.610;2023-04-10T08:58:40;3.50;;;3.20;;
3401;SDS011;1714;49.756;8.610;2023-04-10T09:09:17;2.88;;;2.53;;
3401;SDS011;1714;49.756;8.610;2023-04-10T09:19:53;2.58;;;2.38;;
3401;SDS011;1714;49.756;8.610;2023-04-10T09:30:39;2.63;;;2.43;;
3401;SDS011;1714;49.756;8.610;2023-04-10T09:41:16;2.53;;;2.33;;
3401;SDS011;1714;49.756;8.610;2023-04-10T09:51:52;2.42;;;2.22;;
3401;SDS011;1714;49.756;8.610;2023-04-10T10:02:28;2.15;;;1.98;;
3401;SDS011;1714;49.756;8.610;2023-04-10T10:13:05;2.35;;;2.15;;
3401;SDS011;1714;49.756;8.610;2023-04-10T10:23:42;2.72;;;2.38;;
3401;SDS011;1714;49.756;8.610;2023-04-10T10:34:21;3.45;;;2.75;;
3401;SDS011;1714;49.756;8.610;2023-04-10T10:45:08;3.63;;;2.42;;
3401;SDS011;1714;49.756;8.610;2023-04-10T10:55:46;5.03;;;2.17;;
3401;SDS011;1714;49.756;8.610;2023-04-10T11:06:47;4.05;;;2.33;;
3401;SDS011;1714;49.756;8.610;2023-04-10T11:39:10;3.03;;;2.72;;
3401;SDS011;1714;49.756;8.610;2023-04-10T11:49:47;3.70;;;2.60;;
3401;SDS011;1714;49.756;8.610;2023-04-10T12:00:29;2.75;;;2.53;;
3401;SDS011;1714;49.756;8.610;2023-04-10T12:11:06;3.00;;;2.70;;
3401;SDS011;1714;49.756;8.610;2023-04-10T12:21:43;3.10;;;2.53;;
3401;SDS011;1714;49.756;8.610;2023-04-10T12:32:20;3.92;;;3.28;;
3401;SDS011;1714;49.756;8.610;2023-04-10T12:42:56;2.75;;;2.45;;
3401;SDS011;1714;49.756;8.610;2023-04-10T12:53:41;3.65;;;2.60;;
3401;SDS011;1714;49.756;8.610;2023-04-10T13:04:18;4.43;;;2.28;;
3401;SDS011;1714;49.756;8.610;2023-04-10T13:14:53;2.85;;;2.38;;
3401;SDS011;1714;49.756;8.610;2023-04-10T13:25:30;2.60;;;2.22;;
3401;SDS011;1714;49.756;8.610;2023-04-10T13:36:08;1.98;;;1.70;;
3401;SDS011;1714;49.756;8.610;2023-04-10T13:46:43;2.30;;;2.10;;
3401;SDS011;1714;49.756;8.610;2023-04-10T13:57:19;2.15;;;1.98;;
3401;SDS011;1714;49.756;8.610;2023-04-10T14:07:55;1.83;;;1.65;;
3401;SDS011;1714;49.756;8.610;2023-04-10T14:18:31;2.15;;;1.70;;
3401;SDS011;1714;49.756;8.610;2023-04-10T14:29:06;1.65;;;1.55;;
3401;SDS011;1714;49.756;8.610;2023-04-10T14:39:42;1.67;;;1.58;;
3401;SDS011;1714;49.756;8.610;2023-04-10T14:50:18;1.88;;;1.35;;
3401;SDS011;1714;49.756;8.610;2023-04-10T15:00:54;1.40;;;1.23;;
3401;SDS011;1714;49.756;8.610;2023-04-10T15:11:30;3.40;;;1.50;;
3401;SDS011;1714;49.756;8.610;2023-04-10T15:22:06;2.30;;;1.60;;
3401;SDS011;1714;49.756;8.610;2023-04-10T15:32:41;1.25;;;1.13;;
3401;SDS011;1714;49.756;8.610;2023-04-10T15:43:17;1.38;;;1.27;;
3401;SDS011;1714;49.756;8.610;2023-04-10T15:53:53;2.03;;;1.30;;
3401;SDS011;1714;49.756;8.610;2023-04-10T16:04:29;6.60;;;4.35;;
3401;SDS011;1714;49.756;8.610;2023-04-10T16:15:05;1.13;;;1.02;;
3401;SDS011;1714;49.756;8.610;2023-04-10T16:25:44;1.30;;;1.20;;
3401;SDS011;1714;49.756;8.610;2023-04-10T16:36:20;2.63;;;2.10;;
3401;SDS011;1714;49.756;8.610;2023-04-10T16:46:56;1.85;;;1.65;;
3401;SDS011;1714;49.756;8.610;2023-04-10T16:57:32;12.30;;;2.85;;
3401;SDS011;1714;49.756;8.610;2023-04-10T17:08:07;3.20;;;1.95;;
3401;SDS011;1714;49.756;8.610;2023-04-10T17:18:43;1.70;;;1.45;;
3401;SDS011;1714;49.756;8.610;2023-04-10T17:29:19;1.95;;;1.55;;
3401;SDS011;1714;49.756;8.610;2023-04-10T17:39:55;4.78;;;1.90;;
3401;SDS011;1714;49.756;8.610;2023-04-10T17:50:30;2.53;;;1.85;;
3401;SDS011;1714;49.756;8.610;2023-04-10T18:01:06;4.60;;;2.00;;
3401;SDS011;1714;49.756;8.610;2023-04-10T18:11:42;2.42;;;1.67;;
3401;SDS011;1714;49.756;8.610;2023-04-10T18:22:18;3.78;;;2.10;;
3401;SDS011;1714;49.756;8.610;2023-04-10T18:32:54;2.90;;;2.00;;
3401;SDS011;1714;49.756;8.610;2023-04-10T18:43:30;4.38;;;2.47;;
3401;SDS011;1714;49.756;8.610;2023-04-10T18:54:05;3.30;;;2.17;;
3401;SDS011;1714;49.756;8.610;2023-04-10T19:04:41;3.78;;;2.50;;
3401;SDS011;1714;49.756;8.610;2023-04-10T19:15:17;2.83;;;2.25;;
3401;SDS011;1714;49.756;8.610;2023-04-10T19:25:53;3.42;;;2.45;;
3401;SDS011;1714;49.756;8.610;2023-04-10T19:36:29;3.40;;;2.60;;
3401;SDS011;1714;49.756;8.610;2023-04-10T19:47:05;2.85;;;2.20;;
3401;SDS011;1714;49.756;8.610;2023-04-10T19:57:40;2.53;;;1.92;;
3401;SDS011;1714;49.756;8.610;2023-04-10T20:08:16;4.75;;;2.50;;
3401;SDS011;1714;49.756;8.610;2023-04-10T20:18:52;7.93;;;2.20;;
3401;SDS011;1714;49.756;8.610;2023-04-10T20:29:29;3.28;;;2.28;;
3401;SDS011;1714;49.756;8.610;2023-04-10T20:40:05;2.50;;;1.95;;
3401;SDS011;1714;49.756;8.610;2023-04-10T20:50:41;2.78;;;2.05;;
3401;SDS011;1714;49.756;8.610;2023-04-10T21:01:19;3.88;;;2.50;;
3401;SDS011;1714;49.756;8.610;2023-04-10T21:11:55;4.50;;;2.30;;
3401;SDS011;1714;49.756;8.610;2023-04-10T21:22:31;7.18;;;2.03;;
